Time;durP1;ratioP1;P1;durP2;ratioP2;P2;SDS_P1;SDS_P2;PMS_P1;PMS_P2;Temp;Humidity;BMP_temperature;BMP_pressure;BME280_temperature;BME280_humidity;BME280_pressure;Samples;Min_cycle;Max_cycle;Signal;HPM_P1;HPM_P2
2021/11/28 00:00:19;;;;;;;12.67;12.37;;;18.30;73.80;;;;;;5014073;28;20450;-50
2021/11/28 00:02:46;;;;;;;12.83;12.43;;;18.30;74.00;;;;;;5013842;28;20473;-49
2021/11/28 00:05:15;;;;;;;12.03;11.70;;;18.30;73.90;;;;;;5013374;28;20533;-46
2021/11/28 00:08:04;;;;;;;13.03;12.63;;;18.30;74.10;;;;;;5014074;28;20874;-47
2021/11/28 00:10:49;;;;;;;12.80;12.40;;;18.30;74.30;;;;;;5013982;28;20781;-46
2021/11/28 00:13:32;;;;;;;12.70;12.30;;;18.30;74.30;;;;;;5013779;28;20445;-47
2021/11/28 00:16:00;;;;;;;13.03;12.63;;;18.30;74.30;;;;;;5014043;28;20500;-45
2021/11/28 00:18:28;;;;;;;12.43;12.13;;;18.20;74.30;;;;;;5013887;28;20457;-47
2021/11/28 00:20:56;;;;;;;13.07;12.67;;;18.20;74.50;;;;;;5013719;28;20462;-47
2021/11/28 00:23:23;;;;;;;12.83;12.53;;;18.20;74.50;;;;;;5013744;28;20472;-45
2021/11/28 00:25:51;;;;;;;13.33;12.93;;;18.20;74.70;;;;;;5013673;28;20465;-45
2021/11/28 00:28:18;;;;;;;13.03;12.70;;;18.10;74.70;;;;;;5013724;28;20442;-47
2021/11/28 00:30:45;;;;;;;12.90;12.50;;;18.20;74.60;;;;;;5013582;28;20453;-51
2021/11/28 00:33:12;;;;;;;13.00;12.60;;;18.20;74.70;;;;;;5025503;28;20445;-49
2021/11/28 00:35:39;;;;;;;12.23;11.93;;;18.10;74.60;;;;;;5022067;28;20572;-47
2021/11/28 00:38:06;;;;;;;12.80;12.40;;;18.10;75.70;;;;;;5022050;28;20811;-47
2021/11/28 00:40:32;;;;;;;13.00;12.60;;;18.30;76.70;;;;;;5033064;28;20823;-50
2021/11/28 00:43:01;;;;;;;13.20;12.80;;;18.20;77.50;;;;;;5032965;28;20445;-47
2021/11/28 00:45:28;;;;;;;13.13;12.73;;;18.10;78.00;;;;;;5032999;28;20987;-49
2021/11/28 00:47:55;;;;;;;12.70;12.40;;;18.20;78.60;;;;;;5027561;28;20477;-53
2021/11/28 00:50:36;;;;;;;13.37;12.87;;;18.20;79.30;;;;;;5013241;28;20452;-47
2021/11/28 00:53:03;;;;;;;13.00;12.70;;;18.20;79.30;;;;;;5038016;22;20493;-53
2021/11/28 00:55:30;;;;;;;13.73;13.23;;;18.20;80.10;;;;;;5005158;28;21022;-52
2021/11/28 00:57:57;;;;;;;13.50;13.00;;;18.30;80.40;;;;;;5013568;28;20453;-51
2021/11/28 01:00:25;;;;;;;13.60;12.97;;;18.20;80.60;;;;;;5029391;28;20821;-52
2021/11/28 01:02:52;;;;;;;13.07;12.67;;;18.30;81.00;;;;;;5032627;28;20993;-51
2021/11/28 01:05:19;;;;;;;13.20;12.70;;;18.30;81.30;;;;;;5033338;28;20447;-50
2021/11/28 01:07:45;;;;;;;13.60;13.10;;;18.30;81.20;;;;;;5033141;28;20456;-50
2021/11/28 01:10:12;;;;;;;12.93;12.53;;;18.30;80.70;;;;;;5020581;28;20446;-51
2021/11/28 01:12:41;;;;;;;13.37;12.97;;;18.30;80.70;;;;;;5013147;28;20468;-50
2021/11/28 01:15:10;;;;;;;13.57;13.17;;;18.30;80.80;;;;;;5013080;28;20501;-50
2021/11/28 01:17:39;;;;;;;14.00;13.53;;;18.20;80.90;;;;;;5012958;28;20537;-53
2021/11/28 01:20:08;;;;;;;12.80;12.40;;;18.20;81.20;;;;;;5024650;28;20456;-52
2021/11/28 01:22:35;;;;;;;13.80;13.30;;;18.20;81.60;;;;;;5033089;28;20476;-52
2021/11/28 01:25:02;;;;;;;13.47;13.07;;;18.10;81.80;;;;;;5033236;28;20452;-49
2021/11/28 01:27:29;;;;;;;13.83;13.43;;;18.10;82.00;;;;;;5029306;28;20453;-50
2021/11/28 01:29:56;;;;;;;13.23;12.83;;;18.10;82.10;;;;;;5013891;28;20464;-51
2021/11/28 01:32:23;;;;;;;12.90;12.50;;;18.10;82.10;;;;;;5013982;28;20468;-55
2021/11/28 01:34:51;;;;;;;13.67;13.07;;;18.10;81.90;;;;;;5013393;28;20444;-52
2021/11/28 01:37:18;;;;;;;13.40;12.90;;;18.10;82.40;;;;;;5014560;28;20442;-52
2021/11/28 01:39:46;;;;;;;13.20;12.80;;;18.00;82.50;;;;;;5031820;28;20449;-53
2021/11/28 01:42:13;;;;;;;13.50;13.03;;;18.00;82.70;;;;;;5032175;28;20823;-54
2021/11/28 01:44:40;;;;;;;13.23;12.83;;;18.00;82.90;;;;;;5032632;28;20453;-52
2021/11/28 01:47:06;;;;;;;13.73;13.33;;;18.00;82.90;;;;;;5032673;28;20536;-52
2021/11/28 01:49:33;;;;;;;13.40;12.90;;;18.00;83.20;;;;;;4993718;28;20445;-51
2021/11/28 01:52:01;;;;;;;12.97;12.57;;;17.90;83.80;;;;;;4992843;28;20988;-50
2021/11/28 01:54:28;;;;;;;13.43;12.93;;;18.00;84.40;;;;;;4992681;28;20447;-53
2021/11/28 01:56:55;;;;;;;12.67;12.27;;;17.90;84.60;;;;;;5016488;28;20485;-52
2021/11/28 01:59:22;;;;;;;13.00;12.67;;;17.90;84.80;;;;;;5032082;28;20449;-52
2021/11/28 02:01:49;;;;;;;12.60;12.20;;;17.90;85.20;;;;;;5031846;28;20461;-51
2021/11/28 02:04:17;;;;;;;13.20;12.70;;;17.90;85.50;;;;;;5032661;28;20449;-51
2021/11/28 02:06:45;;;;;;;13.47;12.97;;;18.00;85.30;;;;;;5022023;28;20442;-52
2021/11/28 02:09:14;;;;;;;13.10;12.70;;;17.90;85.60;;;;;;5012267;28;20454;-53
2021/11/28 02:11:42;;;;;;;13.07;12.67;;;17.90;85.70;;;;;;5011915;28;20477;-52
2021/11/28 02:14:09;;;;;;;14.03;13.53;;;17.90;85.60;;;;;;5012073;28;20446;-51
2021/11/28 02:16:36;;;;;;;13.80;13.30;;;17.90;85.50;;;;;;5020829;28;20850;-51
2021/11/28 02:19:03;;;;;;;13.50;13.10;;;17.90;85.90;;;;;;5032041;28;20528;-53
2021/11/28 02:21:32;;;;;;;13.17;12.73;;;17.80;86.70;;;;;;5030047;28;20465;-52
2021/11/28 02:23:59;;;;;;;13.20;12.80;;;17.80;87.30;;;;;;5032037;28;20993;-51
2021/11/28 02:26:27;;;;;;;13.60;13.20;;;17.80;87.60;;;;;;5024153;28;20446;-52
2021/11/28 02:28:54;;;;;;;13.53;13.13;;;17.80;88.00;;;;;;5018460;28;20510;-51
2021/11/28 02:31:22;;;;;;;12.90;12.43;;;17.80;88.00;;;;;;5018605;28;20497;-51
2021/11/28 02:33:48;;;;;;;12.50;12.20;;;17.80;88.60;;;;;;5018601;28;20508;-54
2021/11/28 02:36:16;;;;;;;13.00;12.60;;;17.80;88.70;;;;;;5024403;28;20503;-51
2021/11/28 02:38:45;;;;;;;13.10;12.70;;;17.70;89.10;;;;;;5038761;28;20451;-52
2021/11/28 02:41:12;;;;;;;13.70;13.30;;;17.80;89.10;;;;;;5038602;28;20449;-51
2021/11/28 02:43:38;;;;;;;12.73;12.30;;;17.70;89.30;;;;;;5038376;28;20810;-51
2021/11/28 02:46:09;;;;;;;13.00;12.60;;;17.70;89.60;;;;;;5020130;28;21014;-51
2021/11/28 02:48:35;;;;;;;13.50;12.97;;;17.80;89.70;;;;;;5018583;28;20460;-52
2021/11/28 02:51:04;;;;;;;12.70;12.30;;;17.80;89.30;;;;;;5018389;28;20452;-51
2021/11/28 02:53:31;;;;;;;13.07;12.67;;;17.70;89.50;;;;;;5028344;28;20533;-53
2021/11/28 02:56:02;;;;;;;13.40;13.00;;;17.70;90.00;;;;;;5038083;28;20484;-52
2021/11/28 02:58:31;;;;;;;13.47;13.07;;;17.70;90.30;;;;;;5038278;28;20814;-51
2021/11/28 03:01:01;;;;;;;13.00;12.60;;;17.70;90.50;;;;;;5037875;28;20441;-54
2021/11/28 03:03:28;;;;;;;13.20;12.80;;;17.70;90.60;;;;;;5027554;28;20446;-51
2021/11/28 03:05:55;;;;;;;12.80;12.40;;;17.70;90.60;;;;;;5018295;28;20448;-54
2021/11/28 03:08:22;;;;;;;13.97;13.47;;;17.60;90.80;;;;;;5018367;28;20829;-51
2021/11/28 03:10:51;;;;;;;13.87;13.37;;;17.60;90.90;;;;;;5018242;28;20824;-48
2021/11/28 03:13:23;;;;;;;13.87;13.37;;;17.60;90.70;;;;;;5026160;28;20460;-55
2021/11/28 03:15:52;;;;;;;12.80;12.40;;;17.60;90.80;;;;;;5037940;28;20509;-50
2021/11/28 03:18:21;;;;;;;13.17;12.77;;;17.60;90.80;;;;;;5038152;28;20448;-52
2021/11/28 03:20:51;;;;;;;13.97;13.47;;;17.70;90.80;;;;;;5038323;28;20851;-51
2021/11/28 03:23:18;;;;;;;13.50;13.10;;;17.60;91.10;;;;;;5029355;28;20473;-52
2021/11/28 03:25:45;;;;;;;12.87;12.47;;;17.60;91.30;;;;;;5018175;28;20442;-49
2021/11/28 03:28:13;;;;;;;12.70;12.27;;;17.60;91.50;;;;;;5018275;28;20456;-53
2021/11/28 03:30:42;;;;;;;13.40;13.00;;;17.60;91.60;;;;;;5018251;28;20450;-52
2021/11/28 03:33:09;;;;;;;13.60;13.20;;;17.50;91.90;;;;;;5024308;28;20486;-51
2021/11/28 03:35:36;;;;;;;14.00;13.50;;;17.60;91.70;;;;;;5037741;28;20444;-53
2021/11/28 03:38:03;;;;;;;13.10;12.70;;;17.50;91.80;;;;;;5037759;28;20822;-52
2021/11/28 03:40:30;;;;;;;13.53;13.03;;;17.50;92.10;;;;;;5033671;28;20441;-51
2021/11/28 03:42:57;;;;;;;14.10;13.60;;;17.40;92.20;;;;;;5029642;28;20462;-52
2021/11/28 03:45:24;;;;;;;13.83;13.30;;;17.40;92.20;;;;;;5015128;28;20446;-54
2021/11/28 03:47:52;;;;;;;12.93;12.53;;;17.40;92.20;;;;;;5014786;28;20821;-50
2021/11/28 03:50:18;;;;;;;12.83;12.43;;;17.40;92.50;;;;;;5015132;28;20545;-55
2021/11/28 03:52:45;;;;;;;13.00;12.60;;;17.50;92.70;;;;;;5016976;28;20476;-50
2021/11/28 03:55:14;;;;;;;12.90;12.50;;;17.60;92.60;;;;;;5034369;28;20998;-51
2021/11/28 03:57:40;;;;;;;13.03;12.63;;;17.60;92.30;;;;;;5034135;28;20476;-55
2021/11/28 04:00:09;;;;;;;12.80;12.43;;;17.70;92.20;;;;;;5034165;28;20452;-55
2021/11/28 04:02:36;;;;;;;13.70;13.30;;;17.70;92.00;;;;;;5032262;28;20836;-50
2021/11/28 04:05:06;;;;;;;13.10;12.70;;;17.80;92.00;;;;;;5014225;28;20954;-51
2021/11/28 04:07:33;;;;;;;13.10;12.70;;;17.80;91.80;;;;;;5014540;28;20441;-51
2021/11/28 04:09:59;;;;;;;13.10;12.70;;;17.80;91.70;;;;;;5014345;28;20449;-51
2021/11/28 04:12:27;;;;;;;13.13;12.73;;;17.80;91.80;;;;;;5013971;28;20469;-49
2021/11/28 04:14:56;;;;;;;13.20;12.80;;;17.90;91.80;;;;;;5011851;28;20466;-50
2021/11/28 04:17:24;;;;;;;12.53;12.13;;;17.80;91.80;;;;;;5014077;28;21052;-51
2021/11/28 04:19:51;;;;;;;13.03;12.63;;;17.80;92.00;;;;;;5014081;28;20448;-50
2021/11/28 04:22:19;;;;;;;13.03;12.63;;;17.80;92.10;;;;;;5014053;28;20470;-51
2021/11/28 04:24:46;;;;;;;13.00;12.60;;;17.80;92.10;;;;;;5032297;28;20461;-55
2021/11/28 04:27:12;;;;;;;13.17;12.77;;;17.70;92.20;;;;;;5033844;28;20966;-49
2021/11/28 04:29:39;;;;;;;13.07;12.67;;;17.70;92.90;;;;;;5033852;28;20445;-52
2021/11/28 04:32:07;;;;;;;13.47;12.97;;;17.80;92.70;;;;;;5033397;28;20836;-50
2021/11/28 04:34:34;;;;;;;13.23;12.73;;;17.80;92.60;;;;;;5016648;28;20453;-55
2021/11/28 04:37:01;;;;;;;13.40;13.00;;;17.70;92.80;;;;;;5013912;28;20580;-54
2021/11/28 04:39:29;;;;;;;12.87;12.50;;;17.70;93.00;;;;;;5013838;28;20461;-51
2021/11/28 04:41:55;;;;;;;13.63;13.13;;;17.80;92.70;;;;;;5013625;28;20465;-52
2021/11/28 04:44:23;;;;;;;12.83;12.43;;;17.80;92.60;;;;;;5013748;28;20446;-53
2021/11/28 04:46:50;;;;;;;13.10;12.70;;;17.80;92.60;;;;;;5031039;28;20449;-48
2021/11/28 04:49:17;;;;;;;13.73;13.33;;;17.70;93.10;;;;;;5033242;28;20976;-51
2021/11/28 04:51:44;;;;;;;13.33;12.83;;;17.70;93.50;;;;;;5033071;28;20898;-51
2021/11/28 04:54:11;;;;;;;13.40;13.00;;;17.70;93.60;;;;;;5033306;28;20449;-50
2021/11/28 04:56:39;;;;;;;14.50;14.00;;;17.70;93.70;;;;;;5033270;28;20484;-52
2021/11/28 04:59:06;;;;;;;13.57;13.10;;;17.70;93.60;;;;;;5015692;28;20453;-51
2021/11/28 05:01:33;;;;;;;12.77;12.37;;;17.80;93.20;;;;;;5013273;28;20975;-51
2021/11/28 05:04:00;;;;;;;13.27;12.80;;;17.70;93.30;;;;;;5013422;28;20528;-52
2021/11/28 05:06:27;;;;;;;14.03;13.63;;;17.70;93.40;;;;;;5013264;28;20450;-51
2021/11/28 05:08:54;;;;;;;13.50;13.10;;;17.80;93.20;;;;;;5013279;28;20441;-49
2021/11/28 05:11:21;;;;;;;13.83;13.43;;;17.80;93.10;;;;;;5030300;28;20472;-50
2021/11/28 05:13:49;;;;;;;13.63;13.23;;;17.60;93.90;;;;;;5033122;28;20448;-51
2021/11/28 05:16:16;;;;;;;14.00;13.60;;;17.50;94.50;;;;;;5032848;28;20444;-52
2021/11/28 05:18:43;;;;;;;14.10;13.70;;;17.50;94.80;;;;;;5033218;28;20448;-51
2021/11/28 05:21:10;;;;;;;14.00;13.60;;;17.50;94.90;;;;;;5032743;28;20451;-49
2021/11/28 05:23:37;;;;;;;13.53;13.13;;;17.50;95.00;;;;;;5015413;28;20823;-51
2021/11/28 05:26:04;;;;;;;13.80;13.30;;;17.50;94.80;;;;;;5012884;28;20450;-53
2021/11/28 05:28:31;;;;;;;13.80;13.40;;;17.50;94.90;;;;;;5012810;28;20533;-52
2021/11/28 05:30:59;;;;;;;13.87;13.47;;;17.60;94.70;;;;;;5013051;28;20461;-51
2021/11/28 05:33:26;;;;;;;13.10;12.70;;;17.60;94.70;;;;;;5013638;28;20442;-52
2021/11/28 05:35:52;;;;;;;13.30;12.90;;;17.50;95.20;;;;;;5032350;28;20502;-52
2021/11/28 05:38:19;;;;;;;14.17;13.77;;;17.40;95.60;;;;;;5032413;28;20477;-55
2021/11/28 05:40:46;;;;;;;14.40;13.80;;;17.40;95.80;;;;;;5032293;28;20938;-50
2021/11/28 05:43:13;;;;;;;14.03;13.50;;;17.50;95.90;;;;;;5032019;28;20969;-50
2021/11/28 05:45:40;;;;;;;13.67;13.17;;;17.40;95.90;;;;;;5031662;28;20453;-51
2021/11/28 05:48:08;;;;;;;13.50;13.00;;;17.50;95.90;;;;;;5012519;28;20469;-52
2021/11/28 05:50:35;;;;;;;13.40;13.00;;;17.50;95.50;;;;;;5030291;28;20451;-52
2021/11/28 05:53:02;;;;;;;13.50;13.00;;;17.70;96.50;;;;;;5032299;28;20509;-52
2021/11/28 05:55:29;;;;;;;13.40;12.80;;;18.10;95.30;;;;;;5032483;28;20828;-50
2021/11/28 05:57:56;;;;;;;13.13;12.73;;;18.60;93.20;;;;;;5028164;28;20484;-53
2021/11/28 06:00:24;;;;;;;14.20;13.67;;;18.90;91.70;;;;;;5012644;28;20457;-50
2021/11/28 06:02:51;;;;;;;13.93;13.50;;;19.10;90.40;;;;;;5011926;28;20493;-52
2021/11/28 06:05:19;;;;;;;14.20;13.70;;;19.20;88.70;;;;;;5012918;28;20448;-54
2021/11/28 06:07:46;;;;;;;14.43;13.93;;;19.30;87.30;;;;;;5012673;28;20468;-49
2021/11/28 06:10:12;;;;;;;13.37;12.97;;;19.50;84.90;;;;;;5017351;28;21134;-50
2021/11/28 06:12:39;;;;;;;13.60;13.20;;;19.50;83.30;;;;;;5031855;28;20469;-49
2021/11/28 06:15:07;;;;;;;14.43;13.93;;;19.50;82.40;;;;;;5031811;28;20445;-54
2021/11/28 06:17:34;;;;;;;14.53;14.03;;;19.60;81.60;;;;;;5031529;28;20485;-53
2021/11/28 06:20:01;;;;;;;13.70;13.30;;;19.60;80.50;;;;;;5031496;28;20449;-53
2021/11/28 06:22:29;;;;;;;14.70;14.20;;;19.70;79.70;;;;;;5022526;28;20465;-52
2021/11/28 06:24:56;;;;;;;14.17;13.77;;;19.60;79.00;;;;;;5011842;28;20450;-51
2021/11/28 06:27:22;;;;;;;14.60;14.20;;;19.70;78.80;;;;;;5012190;28;20818;-53
2021/11/28 06:29:49;;;;;;;14.10;13.60;;;19.70;78.10;;;;;;5012622;28;20442;-53
2021/11/28 06:32:16;;;;;;;14.57;14.07;;;19.70;77.30;;;;;;5012243;28;20466;-49
2021/11/28 06:34:44;;;;;;;15.27;14.70;;;19.80;76.60;;;;;;5020545;28;20449;-53
2021/11/28 06:37:11;;;;;;;14.67;14.17;;;19.80;76.00;;;;;;5032128;28;20484;-51
2021/11/28 06:39:39;;;;;;;14.07;13.67;;;19.70;75.70;;;;;;5031636;28;20561;-52
2021/11/28 06:42:06;;;;;;;14.20;13.80;;;19.80;75.40;;;;;;5031035;28;21050;-52
2021/11/28 06:44:34;;;;;;;14.30;13.90;;;19.80;74.70;;;;;;5031406;28;20457;-53
2021/11/28 06:47:01;;;;;;;13.53;13.13;;;19.70;74.40;;;;;;5029336;28;20449;-51
2021/11/28 06:49:29;;;;;;;14.03;13.63;;;19.70;74.20;;;;;;5031521;28;20451;-51
2021/11/28 06:51:57;;;;;;;14.70;14.20;;;19.70;73.90;;;;;;5031550;28;20487;-48
2021/11/28 06:54:24;;;;;;;14.53;14.07;;;19.70;73.50;;;;;;5031135;28;20835;-47
2021/11/28 06:56:53;;;;;;;13.10;12.70;;;19.60;73.10;;;;;;5019699;28;20474;-48
2021/11/28 06:59:21;;;;;;;14.70;14.20;;;19.60;72.80;;;;;;5011439;28;20454;-45
2021/11/28 07:01:49;;;;;;;14.47;13.97;;;19.60;72.80;;;;;;5011241;28;20477;-48
2021/11/28 07:04:16;;;;;;;15.23;14.73;;;19.60;72.60;;;;;;5012278;28;20818;-48
2021/11/28 07:06:43;;;;;;;9.63;9.43;;;19.60;72.20;;;;;;5011313;28;20457;-48
2021/11/28 07:09:10;;;;;;;9.50;9.30;;;19.60;72.20;;;;;;5011225;28;20452;-48
2021/11/28 07:11:37;;;;;;;9.50;9.20;;;19.50;72.00;;;;;;5011134;28;20494;-48
2021/11/28 07:14:05;;;;;;;10.37;10.10;;;19.50;72.00;;;;;;5027682;28;20929;-48
2021/11/28 07:16:32;;;;;;;9.67;9.47;;;19.50;71.80;;;;;;5034873;28;20448;-47
2021/11/28 07:18:59;;;;;;;8.93;8.70;;;19.50;71.90;;;;;;5034672;28;20476;-47
2021/11/28 07:21:26;;;;;;;9.40;9.17;;;19.50;72.00;;;;;;5034597;28;20461;-48
2021/11/28 07:23:52;;;;;;;10.23;10.03;;;19.40;71.90;;;;;;5019688;28;20899;-47
2021/11/28 07:26:19;;;;;;;10.20;9.90;;;19.40;72.20;;;;;;5014879;28;20842;-47
2021/11/28 07:28:48;;;;;;;8.90;8.60;;;19.40;72.30;;;;;;5014224;28;20446;-46
2021/11/28 07:31:16;;;;;;;10.07;9.77;;;19.50;73.40;;;;;;5021169;28;20317;-46
2021/11/28 07:33:43;;;;;;;9.90;9.60;;;19.50;74.20;;;;;;5034537;28;20445;-47
2021/11/28 07:36:10;;;;;;;10.50;10.10;;;19.50;74.30;;;;;;5028452;28;20441;-50
2021/11/28 07:38:38;;;;;;;11.50;11.10;;;19.50;74.60;;;;;;5022380;28;21092;-50
2021/11/28 07:41:05;;;;;;;11.40;11.10;;;19.50;74.70;;;;;;5021264;28;20487;-51
2021/11/28 07:43:32;;;;;;;9.93;9.63;;;19.50;75.00;;;;;;5022113;28;20555;-53
2021/11/28 07:46:01;;;;;;;10.63;10.33;;;19.50;75.40;;;;;;5022572;28;20448;-49
2021/11/28 07:48:29;;;;;;;9.60;9.40;;;19.50;75.40;;;;;;5022354;28;20882;-50
2021/11/28 07:50:58;;;;;;;10.33;10.03;;;19.50;75.60;;;;;;5018716;28;20450;-52
2021/11/28 07:53:25;;;;;;;9.17;8.90;;;19.40;75.90;;;;;;5002167;28;20473;-49
2021/11/28 07:55:52;;;;;;;10.20;9.90;;;19.40;76.30;;;;;;5002387;28;20476;-49
2021/11/28 07:58:19;;;;;;;10.00;9.70;;;19.40;76.70;;;;;;5002318;28;21322;-50
2021/11/28 08:00:45;;;;;;;9.40;9.20;;;19.30;77.00;;;;;;5003264;28;20457;-52
2021/11/28 08:03:14;;;;;;;9.70;9.40;;;19.30;77.70;;;;;;5005329;28;20480;-54
2021/11/28 08:05:42;;;;;;;10.13;9.83;;;19.30;78.60;;;;;;5002142;28;20469;-50
2021/11/28 08:08:11;;;;;;;10.70;10.40;;;19.30;78.70;;;;;;5002031;28;20450;-49
2021/11/28 08:10:38;;;;;;;9.50;9.30;;;19.20;79.10;;;;;;5002061;28;20457;-48
2021/11/28 08:13:04;;;;;;;10.40;10.10;;;19.20;79.80;;;;;;5016629;28;21187;-50
2021/11/28 08:15:31;;;;;;;9.60;9.40;;;19.10;80.00;;;;;;5021796;28;20471;-50
2021/11/28 08:17:58;;;;;;;10.50;10.00;;;19.10;80.70;;;;;;5015378;28;20485;-48
2021/11/28 08:20:25;;;;;;;9.70;9.50;;;19.00;80.90;;;;;;5002061;28;20876;-51
2021/11/28 08:22:54;;;;;;;10.13;9.83;;;19.10;81.40;;;;;;5001594;28;20991;-49
2021/11/28 08:25:21;;;;;;;10.10;9.80;;;19.10;81.70;;;;;;5009453;28;20464;-50
2021/11/28 08:27:48;;;;;;;9.93;9.63;;;19.10;81.50;;;;;;5002801;28;20944;-52
2021/11/28 08:30:17;;;;;;;10.20;9.90;;;19.10;81.30;;;;;;5017025;28;20453;-50
2021/11/28 08:32:48;;;;;;;9.97;9.70;;;19.10;81.60;;;;;;5009958;28;20513;-51
2021/11/28 08:35:16;;;;;;;10.20;9.90;;;19.10;81.90;;;;;;5002213;28;20761;-48
2021/11/28 08:37:43;;;;;;;10.40;10.10;;;19.00;81.80;;;;;;5009022;28;20490;-48
2021/11/28 08:40:16;;;;;;;10.57;10.27;;;19.00;81.90;;;;;;5017029;28;20460;-49
2021/11/28 08:42:43;;;;;;;11.30;11.00;;;18.90;82.00;;;;;;5020986;28;20481;-48
2021/11/28 08:45:11;;;;;;;10.50;10.20;;;18.90;82.30;;;;;;5021237;28;20449;-53
2021/11/28 08:47:39;;;;;;;10.10;9.90;;;18.90;82.20;;;;;;5018781;28;20447;-49
2021/11/28 08:50:08;;;;;;;10.80;10.50;;;19.00;82.20;;;;;;5006833;28;20459;-47
2021/11/28 08:52:35;;;;;;;10.53;10.33;;;19.00;82.00;;;;;;5020934;28;20480;-49
2021/11/28 08:55:02;;;;;;;9.57;9.30;;;19.00;82.10;;;;;;5021180;28;20449;-49
2021/11/28 08:57:30;;;;;;;9.73;9.53;;;19.00;81.60;;;;;;5020933;28;20481;-51
2021/11/28 08:59:57;;;;;;;9.40;9.20;;;19.10;81.40;;;;;;5017357;28;20446;-51
2021/11/28 09:02:24;;;;;;;9.00;8.80;;;19.10;81.20;;;;;;5000723;28;20496;-51
2021/11/28 09:04:51;;;;;;;9.37;9.10;;;19.10;81.10;;;;;;5001242;28;21003;-50
2021/11/28 09:07:18;;;;;;;10.23;9.93;;;19.10;80.70;;;;;;5001083;28;20531;-54
2021/11/28 09:09:46;;;;;;;10.03;9.83;;;19.20;80.70;;;;;;5007086;28;20453;-48
2021/11/28 09:12:13;;;;;;;10.07;9.87;;;19.20;82.70;;;;;;5020587;28;20473;-50
2021/11/28 09:14:41;;;;;;;10.93;10.63;;;19.50;83.10;;;;;;5020733;28;20455;-50
2021/11/28 09:17:08;;;;;;;10.40;10.20;;;20.00;80.60;;;;;;5020552;28;20937;-50
2021/11/28 09:19:43;;;;;;;10.07;9.80;;;20.30;79.00;;;;;;5016410;28;21023;-50
2021/11/28 09:22:11;;;;;;;10.17;9.87;;;20.50;78.20;;;;;;5000695;28;20792;-50
2021/11/28 09:24:37;;;;;;;10.40;10.17;;;20.90;77.10;;;;;;5000891;28;20929;-49
2021/11/28 09:27:07;;;;;;;9.70;9.40;;;21.30;74.50;;;;;;5000792;28;20459;-50
2021/11/28 09:29:36;;;;;;;11.00;10.70;;;21.40;72.30;;;;;;5004196;28;20623;-48
2021/11/28 09:32:05;;;;;;;10.50;10.20;;;21.60;71.10;;;;;;5000713;28;20919;-49
2021/11/28 09:34:32;;;;;;;10.13;9.83;;;21.70;69.60;;;;;;5000452;28;20827;-50
2021/11/28 09:36:59;;;;;;;10.20;9.90;;;21.80;68.80;;;;;;4999874;28;20477;-54
2021/11/28 09:39:26;;;;;;;11.10;10.60;;;21.90;68.10;;;;;;5000751;28;20490;-50
2021/11/28 09:41:59;;;;;;;9.90;9.70;;;21.90;66.70;;;;;;5002288;28;20482;-50
2021/11/28 09:44:29;;;;;;;10.87;10.57;;;21.90;66.20;;;;;;5000673;28;20461;-50
2021/11/28 09:46:56;;;;;;;11.40;11.00;;;22.00;66.00;;;;;;5000591;28;20450;-52
2021/11/28 09:49:27;;;;;;;10.80;10.50;;;22.20;65.00;;;;;;5000388;28;20446;-54
2021/11/28 09:51:55;;;;;;;10.10;9.80;;;22.40;64.10;;;;;;4999882;28;20846;-51
2021/11/28 09:54:23;;;;;;;9.77;9.57;;;22.60;63.30;;;;;;5008037;28;20464;-52
2021/11/28 09:56:51;;;;;;;10.60;10.30;;;22.60;62.20;;;;;;5020125;28;20833;-50
2021/11/28 09:59:18;;;;;;;10.77;10.47;;;22.70;61.80;;;;;;5019861;28;20491;-49
2021/11/28 10:01:45;;;;;;;10.20;9.90;;;22.60;60.90;;;;;;5019816;28;20831;-49
2021/11/28 10:04:12;;;;;;;10.60;10.20;;;22.60;61.10;;;;;;5014260;28;20450;-51
2021/11/28 10:06:40;;;;;;;10.10;9.80;;;22.70;61.10;;;;;;5000365;28;20490;-50
2021/11/28 10:09:08;;;;;;;10.80;10.50;;;22.90;60.40;;;;;;4999837;28;20460;-52
2021/11/28 10:12:21;;;;;;;10.83;10.40;;;23.20;59.80;;;;;;4999722;28;20474;-51
2021/11/28 10:14:50;;;;;;;11.90;11.50;;;23.30;58.70;;;;;;5010311;28;20449;-52
2021/11/28 10:17:20;;;;;;;11.57;11.17;;;23.30;58.20;;;;;;5019595;28;21245;-51
2021/11/28 10:19:47;;;;;;;10.30;10.00;;;23.40;57.70;;;;;;5019467;28;20524;-55
2021/11/28 10:22:16;;;;;;;11.50;11.20;;;23.50;57.50;;;;;;5019232;28;21013;-51
2021/11/28 10:24:59;;;;;;;10.17;9.87;;;23.50;57.00;;;;;;5017830;28;20911;-52
2021/11/28 10:27:37;;;;;;;11.50;11.20;;;23.60;57.30;;;;;;5019742;28;20555;-55
2021/11/28 10:30:07;;;;;;;10.83;10.53;;;23.90;57.10;;;;;;5019503;28;20463;-50
2021/11/28 10:32:34;;;;;;;10.70;10.40;;;24.10;56.60;;;;;;5017342;28;20473;-51
2021/11/28 10:35:01;;;;;;;11.47;11.07;;;24.20;55.80;;;;;;5019521;28;20945;-52
2021/11/28 10:37:33;;;;;;;11.37;10.97;;;24.30;55.20;;;;;;5004748;28;20464;-52
2021/11/28 10:40:00;;;;;;;12.03;11.67;;;24.30;54.60;;;;;;4999583;28;20492;-51
2021/11/28 10:42:29;;;;;;;10.37;10.07;;;24.30;54.50;;;;;;4999528;28;20936;-53
2021/11/28 10:45:06;;;;;;;10.73;10.43;;;24.40;54.30;;;;;;4999789;28;20446;-52
2021/11/28 10:47:39;;;;;;;10.57;10.30;;;24.50;53.80;;;;;;5000140;28;20465;-52
2021/11/28 10:50:08;;;;;;;10.27;9.97;;;24.60;54.00;;;;;;5003577;28;20448;-53
2021/11/28 10:52:36;;;;;;;11.38;11.07;;;24.70;53.60;;;;;;5003351;28;20438;-52
2021/11/28 10:55:11;;;;;;;10.00;9.80;;;24.90;53.20;;;;;;5003720;28;20301;-55
2021/11/28 10:57:38;;;;;;;11.13;10.73;;;24.90;52.80;;;;;;5003483;28;20973;-51
2021/11/28 11:00:08;;;;;;;10.60;10.30;;;24.90;52.60;;;;;;5013699;28;20635;-54
2021/11/28 11:02:37;;;;;;;11.20;10.80;;;24.90;52.50;;;;;;5022969;28;21055;-51
2021/11/28 11:05:06;;;;;;;10.57;10.27;;;24.90;52.10;;;;;;5023125;28;20495;-52
2021/11/28 11:07:45;;;;;;;10.67;10.37;;;25.00;52.10;;;;;;5022850;28;21001;-57
2021/11/28 11:10:23;;;;;;;13.80;13.30;;;25.10;52.30;;;;;;5013338;28;20592;-55
2021/11/28 11:12:50;;;;;;;11.33;11.03;;;25.50;51.70;;;;;;5002845;28;20469;-54
2021/11/28 11:15:35;;;;;;;11.50;11.00;;;26.10;50.80;;;;;;5003069;28;20779;-55
2021/11/28 11:18:04;;;;;;;10.50;10.20;;;26.10;49.90;;;;;;5008520;28;20970;-51
2021/11/28 11:20:33;;;;;;;11.00;10.67;;;27.20;48.90;;;;;;5022763;28;20456;-53
2021/11/28 11:23:02;;;;;;;11.80;11.40;;;27.90;46.80;;;;;;5022440;28;21092;-52
2021/11/28 11:25:34;;;;;;;11.27;10.97;;;28.20;45.80;;;;;;5022844;28;20448;-52
2021/11/28 11:28:12;;;;;;;12.40;11.97;;;28.40;45.10;;;;;;5017229;28;20452;-53
2021/11/28 11:30:39;;;;;;;11.73;11.37;;;28.50;44.30;;;;;;5002744;28;20445;-53
2021/11/28 11:33:07;;;;;;;10.47;10.23;;;28.70;43.90;;;;;;5002524;28;20473;-51
2021/11/28 11:35:39;;;;;;;12.50;12.00;;;29.10;43.70;;;;;;5002798;28;20547;-52
2021/11/28 11:38:10;;;;;;;10.73;10.32;;;29.40;42.80;;;;;;5002096;28;20451;-53
2021/11/28 11:40:37;;;;;;;12.90;12.50;;;29.50;42.10;;;;;;5012777;28;20672;-50
2021/11/28 11:43:05;;;;;;;12.30;12.00;;;29.60;42.20;;;;;;5022132;28;20893;-50
2021/11/28 11:45:36;;;;;;;10.87;10.57;;;29.80;41.70;;;;;;5022237;28;20452;-55
2021/11/28 11:48:04;;;;;;;11.37;11.00;;;29.60;41.00;;;;;;5013694;28;21023;-52
2021/11/28 11:50:32;;;;;;;11.67;11.37;;;28.90;41.60;;;;;;5019368;28;20457;-55
2021/11/28 11:53:00;;;;;;;12.50;12.10;;;28.30;42.10;;;;;;5021765;28;20484;-52
2021/11/28 11:55:31;;;;;;;12.70;12.10;;;28.00;42.70;;;;;;5022234;28;20453;-50
2021/11/28 11:58:13;;;;;;;10.63;10.33;;;27.80;43.10;;;;;;5022130;28;20480;-54
2021/11/28 12:00:46;;;;;;;10.87;10.57;;;28.20;43.30;;;;;;5003968;28;20443;-51
2021/11/28 12:03:14;;;;;;;11.17;10.87;;;28.40;43.10;;;;;;5002225;28;21054;-49
2021/11/28 12:05:43;;;;;;;12.80;12.30;;;28.70;42.60;;;;;;5002357;28;20919;-54
2021/11/28 12:08:28;;;;;;;11.03;10.73;;;28.70;41.90;;;;;;5016275;28;20639;-52
2021/11/28 12:11:00;;;;;;;11.60;11.30;;;28.60;41.70;;;;;;5022010;28;20813;-52
2021/11/28 12:13:53;;;;;;;10.90;10.60;;;28.30;42.40;;;;;;5021791;28;20449;-51
2021/11/28 12:16:21;;;;;;;10.70;10.40;;;27.90;42.50;;;;;;5021967;28;20568;-50
2021/11/28 12:18:50;;;;;;;10.13;9.83;;;27.80;43.20;;;;;;5003900;28;20484;-51
2021/11/28 12:21:18;;;;;;;11.00;10.70;;;27.60;43.20;;;;;;5001854;28;20462;-50
2021/11/28 12:23:54;;;;;;;12.47;12.00;;;27.40;43.60;;;;;;5001816;28;20445;-51
2021/11/28 12:26:45;;;;;;;11.20;10.83;;;27.20;43.50;;;;;;5013084;28;21052;-55
2021/11/28 12:29:30;;;;;;;11.23;10.93;;;27.10;43.80;;;;;;5004727;28;20450;-50
2021/11/28 12:32:13;;;;;;;11.37;11.07;;;27.10;44.20;;;;;;5001554;28;20470;-50
2021/11/28 12:34:44;;;;;;;10.13;9.83;;;27.30;44.20;;;;;;5019572;28;20453;-50